Oak Island, Minnesota
Current Conditions -  °F | °C
As of 1:14 AM on Saturday 29 Nov 2014 (Local Time) from KFGN Reporting Station
Overcast Overcast  
Wind Chill: -14°   Ceiling: 2200
Heat Index: -9°   Visibility: 10mi
Dew Point: -11°   Wind: 6mph
Humidity: 86%   Direction: 140°SE
Pressure: 29.57"   Gusts: NA
Location:  49.3°N, 94.86°W
Report Text: KFGN 290714Z AUTO 14005KT 10SM SCT015 OVC022 M09/M11 A2957 RMK AO2
Loading
Personal Weather Stations






























Interactive Weather Map New forecast layout! Learn more

10-Day Weather Forecast

Advertisements
Track Severe Weather on mobile